sensor_id;sensor_type;location;lat;lon;timestamp;P1;durP1;ratioP1;P2;durP2;ratioP2
70426;SDS011;57872;55.432;37.248;2023-05-10T00:03:01;23.30;;;9.85;;
70426;SDS011;57872;55.432;37.248;2023-05-10T00:08:04;22.65;;;10.80;;
70426;SDS011;57872;55.432;37.248;2023-05-10T00:13:06;14.32;;;7.93;;
70426;SDS011;57872;55.432;37.248;2023-05-10T00:18:06;16.02;;;8.10;;
70426;SDS011;57872;55.432;37.248;2023-05-10T00:23:07;17.52;;;8.38;;
70426;SDS011;57872;55.432;37.248;2023-05-10T00:28:07;18.15;;;7.82;;
70426;SDS011;57872;55.432;37.248;2023-05-10T00:33:08;20.17;;;8.27;;
70426;SDS011;57872;55.432;37.248;2023-05-10T00:38:09;22.17;;;8.80;;
70426;SDS011;57872;55.432;37.248;2023-05-10T00:43:10;15.15;;;8.80;;
70426;SDS011;57872;55.432;37.248;2023-05-10T00:48:11;16.73;;;8.23;;
70426;SDS011;57872;55.432;37.248;2023-05-10T00:53:12;15.25;;;7.25;;
70426;SDS011;57872;55.432;37.248;2023-05-10T00:58:12;12.55;;;6.63;;
70426;SDS011;57872;55.432;37.248;2023-05-10T01:03:14;13.50;;;7.50;;
70426;SDS011;57872;55.432;37.248;2023-05-10T01:08:16;14.63;;;7.43;;
70426;SDS011;57872;55.432;37.248;2023-05-10T01:13:38;15.25;;;7.20;;
70426;SDS011;57872;55.432;37.248;2023-05-10T01:18:41;12.00;;;6.88;;
70426;SDS011;57872;55.432;37.248;2023-05-10T01:24:31;15.27;;;7.25;;
70426;SDS011;57872;55.432;37.248;2023-05-10T01:29:09;13.25;;;6.60;;
70426;SDS011;57872;55.432;37.248;2023-05-10T01:34:25;13.32;;;7.45;;
70426;SDS011;57872;55.432;37.248;2023-05-10T01:49:55;13.60;;;7.80;;
70426;SDS011;57872;55.432;37.248;2023-05-10T01:55:01;16.15;;;7.50;;
70426;SDS011;57872;55.432;37.248;2023-05-10T02:00:03;13.15;;;7.32;;
70426;SDS011;57872;55.432;37.248;2023-05-10T02:05:15;13.90;;;6.82;;
70426;SDS011;57872;55.432;37.248;2023-05-10T02:10:16;12.63;;;7.00;;
70426;SDS011;57872;55.432;37.248;2023-05-10T02:15:18;13.82;;;7.50;;
70426;SDS011;57872;55.432;37.248;2023-05-10T02:20:24;12.90;;;7.53;;
70426;SDS011;57872;55.432;37.248;2023-05-10T02:25:25;15.50;;;7.57;;
70426;SDS011;57872;55.432;37.248;2023-05-10T02:30:26;15.10;;;7.38;;
70426;SDS011;57872;55.432;37.248;2023-05-10T02:35:27;12.75;;;6.85;;
70426;SDS011;57872;55.432;37.248;2023-05-10T02:40:29;12.23;;;7.15;;
70426;SDS011;57872;55.432;37.248;2023-05-10T02:45:31;12.75;;;6.80;;
70426;SDS011;57872;55.432;37.248;2023-05-10T02:50:32;11.52;;;6.30;;
70426;SDS011;57872;55.432;37.248;2023-05-10T02:55:35;13.38;;;6.60;;
70426;SDS011;57872;55.432;37.248;2023-05-10T03:00:38;11.20;;;6.22;;
70426;SDS011;57872;55.432;37.248;2023-05-10T03:05:39;13.25;;;6.60;;
70426;SDS011;57872;55.432;37.248;2023-05-10T03:10:41;10.85;;;6.40;;
70426;SDS011;57872;55.432;37.248;2023-05-10T03:16:08;13.93;;;6.40;;
70426;SDS011;57872;55.432;37.248;2023-05-10T03:21:11;13.57;;;6.50;;
70426;SDS011;57872;55.432;37.248;2023-05-10T03:26:34;14.27;;;6.97;;
70426;SDS011;57872;55.432;37.248;2023-05-10T03:31:44;13.45;;;6.78;;
70426;SDS011;57872;55.432;37.248;2023-05-10T03:36:44;13.13;;;6.63;;
70426;SDS011;57872;55.432;37.248;2023-05-10T03:41:45;13.02;;;6.70;;
70426;SDS011;57872;55.432;37.248;2023-05-10T03:46:46;11.85;;;6.65;;
70426;SDS011;57872;55.432;37.248;2023-05-10T03:51:47;12.45;;;6.50;;
70426;SDS011;57872;55.432;37.248;2023-05-10T03:56:47;13.75;;;6.70;;
70426;SDS011;57872;55.432;37.248;2023-05-10T04:01:50;11.60;;;6.00;;
70426;SDS011;57872;55.432;37.248;2023-05-10T04:06:50;12.27;;;5.88;;
70426;SDS011;57872;55.432;37.248;2023-05-10T04:11:51;13.52;;;6.15;;
70426;SDS011;57872;55.432;37.248;2023-05-10T04:16:52;13.43;;;6.57;;
70426;SDS011;57872;55.432;37.248;2023-05-10T04:21:53;10.18;;;5.70;;
70426;SDS011;57872;55.432;37.248;2023-05-10T04:26:54;11.57;;;5.40;;
70426;SDS011;57872;55.432;37.248;2023-05-10T04:31:55;11.65;;;6.05;;
70426;SDS011;57872;55.432;37.248;2023-05-10T04:36:56;11.82;;;5.57;;
70426;SDS011;57872;55.432;37.248;2023-05-10T04:41:57;10.18;;;5.85;;
70426;SDS011;57872;55.432;37.248;2023-05-10T04:46:57;11.40;;;5.40;;
70426;SDS011;57872;55.432;37.248;2023-05-10T04:52:04;12.57;;;5.53;;
70426;SDS011;57872;55.432;37.248;2023-05-10T05:02:13;12.73;;;4.65;;
70426;SDS011;57872;55.432;37.248;2023-05-10T05:07:16;9.05;;;4.03;;
70426;SDS011;57872;55.432;37.248;2023-05-10T05:12:22;12.00;;;4.07;;
70426;SDS011;57872;55.432;37.248;2023-05-10T05:17:23;8.70;;;3.85;;
70426;SDS011;57872;55.432;37.248;2023-05-10T05:22:24;7.25;;;3.60;;
70426;SDS011;57872;55.432;37.248;2023-05-10T05:27:27;9.50;;;3.75;;
70426;SDS011;57872;55.432;37.248;2023-05-10T05:32:28;8.70;;;3.33;;
70426;SDS011;57872;55.432;37.248;2023-05-10T05:37:29;8.07;;;3.67;;
70426;SDS011;57872;55.432;37.248;2023-05-10T05:42:30;7.95;;;3.05;;
70426;SDS011;57872;55.432;37.248;2023-05-10T05:47:31;8.35;;;3.30;;
70426;SDS011;57872;55.432;37.248;2023-05-10T05:52:32;7.80;;;3.45;;
70426;SDS011;57872;55.432;37.248;2023-05-10T05:57:33;8.00;;;2.95;;
70426;SDS011;57872;55.432;37.248;2023-05-10T06:02:33;6.70;;;2.63;;
70426;SDS011;57872;55.432;37.248;2023-05-10T06:07:34;6.10;;;2.70;;
70426;SDS011;57872;55.432;37.248;2023-05-10T06:12:35;6.47;;;3.20;;
70426;SDS011;57872;55.432;37.248;2023-05-10T06:17:36;5.85;;;2.75;;
70426;SDS011;57872;55.432;37.248;2023-05-10T06:22:37;6.28;;;3.00;;
70426;SDS011;57872;55.432;37.248;2023-05-10T06:27:37;6.80;;;2.40;;
70426;SDS011;57872;55.432;37.248;2023-05-10T06:32:38;7.78;;;2.20;;
70426;SDS011;57872;55.432;37.248;2023-05-10T06:37:39;7.63;;;2.50;;
70426;SDS011;57872;55.432;37.248;2023-05-10T06:42:40;9.60;;;2.50;;
70426;SDS011;57872;55.432;37.248;2023-05-10T06:47:41;8.82;;;2.08;;
70426;SDS011;57872;55.432;37.248;2023-05-10T06:52:42;5.47;;;1.80;;
70426;SDS011;57872;55.432;37.248;2023-05-10T06:57:42;5.35;;;2.00;;
70426;SDS011;57872;55.432;37.248;2023-05-10T07:02:43;6.20;;;2.15;;
70426;SDS011;57872;55.432;37.248;2023-05-10T07:07:47;7.25;;;2.25;;
70426;SDS011;57872;55.432;37.248;2023-05-10T07:12:51;6.95;;;2.13;;
70426;SDS011;57872;55.432;37.248;2023-05-10T07:17:55;6.18;;;1.90;;
70426;SDS011;57872;55.432;37.248;2023-05-10T07:22:55;5.70;;;1.90;;
70426;SDS011;57872;55.432;37.248;2023-05-10T07:27:56;4.50;;;1.80;;
70426;SDS011;57872;55.432;37.248;2023-05-10T07:32:56;5.53;;;1.85;;
70426;SDS011;57872;55.432;37.248;2023-05-10T07:38:00;5.00;;;1.75;;
70426;SDS011;57872;55.432;37.248;2023-05-10T07:43:06;6.82;;;1.98;;
70426;SDS011;57872;55.432;37.248;2023-05-10T07:48:14;6.70;;;2.50;;
70426;SDS011;57872;55.432;37.248;2023-05-10T07:53:22;5.57;;;2.13;;
70426;SDS011;57872;55.432;37.248;2023-05-10T07:58:23;6.07;;;2.20;;
70426;SDS011;57872;55.432;37.248;2023-05-10T08:03:30;5.25;;;2.30;;
70426;SDS011;57872;55.432;37.248;2023-05-10T08:08:30;5.57;;;1.88;;
70426;SDS011;57872;55.432;37.248;2023-05-10T08:13:36;6.13;;;2.40;;
70426;SDS011;57872;55.432;37.248;2023-05-10T08:18:37;6.75;;;2.30;;
70426;SDS011;57872;55.432;37.248;2023-05-10T08:23:39;5.45;;;2.33;;
70426;SDS011;57872;55.432;37.248;2023-05-10T08:28:40;5.90;;;2.30;;
70426;SDS011;57872;55.432;37.248;2023-05-10T08:33:44;9.50;;;2.47;;
70426;SDS011;57872;55.432;37.248;2023-05-10T08:38:51;7.05;;;2.20;;
70426;SDS011;57872;55.432;37.248;2023-05-10T08:43:52;5.18;;;2.28;;
70426;SDS011;57872;55.432;37.248;2023-05-10T08:48:54;6.30;;;2.50;;
70426;SDS011;57872;55.432;37.248;2023-05-10T08:53:56;7.50;;;2.58;;
70426;SDS011;57872;55.432;37.248;2023-05-10T08:58:57;7.70;;;2.58;;
70426;SDS011;57872;55.432;37.248;2023-05-10T09:03:57;8.10;;;2.50;;
70426;SDS011;57872;55.432;37.248;2023-05-10T09:08:58;5.93;;;2.25;;
70426;SDS011;57872;55.432;37.248;2023-05-10T09:14:03;5.85;;;2.40;;
70426;SDS011;57872;55.432;37.248;2023-05-10T09:19:30;4.70;;;2.08;;
70426;SDS011;57872;55.432;37.248;2023-05-10T09:25:12;6.32;;;2.28;;
70426;SDS011;57872;55.432;37.248;2023-05-10T09:30:18;7.03;;;2.70;;
70426;SDS011;57872;55.432;37.248;2023-05-10T09:35:27;5.85;;;2.78;;
70426;SDS011;57872;55.432;37.248;2023-05-10T09:40:29;5.65;;;2.38;;
70426;SDS011;57872;55.432;37.248;2023-05-10T09:45:31;5.82;;;2.53;;
70426;SDS011;57872;55.432;37.248;2023-05-10T09:50:38;5.53;;;2.10;;
70426;SDS011;57872;55.432;37.248;2023-05-10T09:56:05;6.47;;;2.50;;
70426;SDS011;57872;55.432;37.248;2023-05-10T10:01:10;5.90;;;2.30;;
70426;SDS011;57872;55.432;37.248;2023-05-10T10:06:24;6.05;;;2.25;;
70426;SDS011;57872;55.432;37.248;2023-05-10T10:11:34;6.57;;;2.35;;
70426;SDS011;57872;55.432;37.248;2023-05-10T10:16:36;6.25;;;2.25;;
70426;SDS011;57872;55.432;37.248;2023-05-10T10:21:37;6.80;;;2.20;;
70426;SDS011;57872;55.432;37.248;2023-05-10T10:26:38;5.55;;;2.20;;
70426;SDS011;57872;55.432;37.248;2023-05-10T10:32:09;5.70;;;2.45;;
70426;SDS011;57872;55.432;37.248;2023-05-10T10:37:43;6.57;;;2.60;;
70426;SDS011;57872;55.432;37.248;2023-05-10T10:42:47;7.05;;;2.63;;
70426;SDS011;57872;55.432;37.248;2023-05-10T10:53:11;7.07;;;2.35;;
70426;SDS011;57872;55.432;37.248;2023-05-10T10:58:30;6.80;;;2.58;;
70426;SDS011;57872;55.432;37.248;2023-05-10T11:03:36;5.50;;;2.20;;
70426;SDS011;57872;55.432;37.248;2023-05-10T11:09:12;6.65;;;2.50;;
70426;SDS011;57872;55.432;37.248;2023-05-10T11:14:32;6.70;;;2.40;;
70426;SDS011;57872;55.432;37.248;2023-05-10T11:20:07;6.53;;;2.72;;
70426;SDS011;57872;55.432;37.248;2023-05-10T11:25:12;8.30;;;2.65;;
70426;SDS011;57872;55.432;37.248;2023-05-10T11:30:15;7.90;;;2.92;;
70426;SDS011;57872;55.432;37.248;2023-05-10T11:35:16;7.43;;;2.47;;
70426;SDS011;57872;55.432;37.248;2023-05-10T11:40:23;10.45;;;2.70;;
70426;SDS011;57872;55.432;37.248;2023-05-10T11:45:27;7.18;;;2.47;;
70426;SDS011;57872;55.432;37.248;2023-05-10T11:50:31;5.95;;;2.13;;
70426;SDS011;57872;55.432;37.248;2023-05-10T11:55:33;5.72;;;2.30;;
70426;SDS011;57872;55.432;37.248;2023-05-10T12:00:43;7.28;;;2.33;;
70426;SDS011;57872;55.432;37.248;2023-05-10T12:06:01;6.60;;;2.88;;
70426;SDS011;57872;55.432;37.248;2023-05-10T12:11:27;9.55;;;2.72;;
70426;SDS011;57872;55.432;37.248;2023-05-10T12:16:50;6.28;;;2.35;;
70426;SDS011;57872;55.432;37.248;2023-05-10T12:21:57;7.53;;;2.80;;
70426;SDS011;57872;55.432;37.248;2023-05-10T12:27:06;7.28;;;2.90;;
70426;SDS011;57872;55.432;37.248;2023-05-10T12:32:36;9.57;;;2.83;;
70426;SDS011;57872;55.432;37.248;2023-05-10T12:37:41;6.55;;;2.55;;
70426;SDS011;57872;55.432;37.248;2023-05-10T12:42:45;7.60;;;2.95;;
70426;SDS011;57872;55.432;37.248;2023-05-10T12:47:45;7.57;;;2.58;;
70426;SDS011;57872;55.432;37.248;2023-05-10T12:52:49;8.85;;;2.63;;
70426;SDS011;57872;55.432;37.248;2023-05-10T12:57:50;7.10;;;2.80;;
70426;SDS011;57872;55.432;37.248;2023-05-10T13:02:51;6.00;;;2.63;;
70426;SDS011;57872;55.432;37.248;2023-05-10T13:07:58;7.03;;;3.03;;
70426;SDS011;57872;55.432;37.248;2023-05-10T13:13:17;9.43;;;3.00;;
70426;SDS011;57872;55.432;37.248;2023-05-10T13:18:18;8.70;;;2.60;;
70426;SDS011;57872;55.432;37.248;2023-05-10T13:23:19;9.27;;;2.78;;
70426;SDS011;57872;55.432;37.248;2023-05-10T13:28:34;9.85;;;2.88;;
70426;SDS011;57872;55.432;37.248;2023-05-10T13:34:03;7.97;;;2.78;;
70426;SDS011;57872;55.432;37.248;2023-05-10T13:39:04;7.60;;;3.00;;
70426;SDS011;57872;55.432;37.248;2023-05-10T13:44:05;6.47;;;2.80;;
70426;SDS011;57872;55.432;37.248;2023-05-10T13:49:06;7.10;;;2.65;;
70426;SDS011;57872;55.432;37.248;2023-05-10T13:54:07;6.80;;;2.72;;
70426;SDS011;57872;55.432;37.248;2023-05-10T13:59:08;9.82;;;3.17;;
70426;SDS011;57872;55.432;37.248;2023-05-10T14:04:09;8.85;;;3.22;;
70426;SDS011;57872;55.432;37.248;2023-05-10T14:09:26;6.93;;;3.20;;
70426;SDS011;57872;55.432;37.248;2023-05-10T14:14:27;7.30;;;3.03;;
70426;SDS011;57872;55.432;37.248;2023-05-10T14:19:29;8.75;;;3.42;;
70426;SDS011;57872;55.432;37.248;2023-05-10T14:24:32;6.63;;;3.05;;
70426;SDS011;57872;55.432;37.248;2023-05-10T14:29:33;16.48;;;10.00;;
70426;SDS011;57872;55.432;37.248;2023-05-10T14:34:39;8.13;;;3.03;;
70426;SDS011;57872;55.432;37.248;2023-05-10T14:39:45;11.00;;;2.60;;
70426;SDS011;57872;55.432;37.248;2023-05-10T14:44:46;7.72;;;2.90;;
70426;SDS011;57872;55.432;37.248;2023-05-10T14:49:47;9.20;;;3.15;;
70426;SDS011;57872;55.432;37.248;2023-05-10T14:54:48;7.10;;;2.97;;
70426;SDS011;57872;55.432;37.248;2023-05-10T14:59:49;8.27;;;3.53;;
70426;SDS011;57872;55.432;37.248;2023-05-10T15:04:50;27.88;;;18.02;;
70426;SDS011;57872;55.432;37.248;2023-05-10T15:09:51;10.68;;;4.45;;
70426;SDS011;57872;55.432;37.248;2023-05-10T15:14:52;8.75;;;3.55;;
70426;SDS011;57872;55.432;37.248;2023-05-10T15:19:53;9.20;;;3.20;;
70426;SDS011;57872;55.432;37.248;2023-05-10T15:24:57;8.25;;;2.88;;
70426;SDS011;57872;55.432;37.248;2023-05-10T15:30:26;8.18;;;2.80;;
70426;SDS011;57872;55.432;37.248;2023-05-10T15:35:27;9.95;;;3.28;;
70426;SDS011;57872;55.432;37.248;2023-05-10T15:40:28;9.75;;;3.20;;
70426;SDS011;57872;55.432;37.248;2023-05-10T15:45:29;7.65;;;3.45;;
70426;SDS011;57872;55.432;37.248;2023-05-10T15:50:30;9.00;;;3.30;;
70426;SDS011;57872;55.432;37.248;2023-05-10T15:55:31;7.75;;;2.92;;
70426;SDS011;57872;55.432;37.248;2023-05-10T16:00:34;11.68;;;4.03;;
70426;SDS011;57872;55.432;37.248;2023-05-10T16:05:35;11.93;;;3.20;;
70426;SDS011;57872;55.432;37.248;2023-05-10T16:10:36;11.73;;;3.78;;
70426;SDS011;57872;55.432;37.248;2023-05-10T16:15:37;10.55;;;3.85;;
70426;SDS011;57872;55.432;37.248;2023-05-10T16:20:38;9.45;;;4.55;;
70426;SDS011;57872;55.432;37.248;2023-05-10T16:25:38;9.80;;;4.15;;
70426;SDS011;57872;55.432;37.248;2023-05-10T16:30:39;16.45;;;4.63;;
70426;SDS011;57872;55.432;37.248;2023-05-10T16:35:42;14.70;;;4.55;;
70426;SDS011;57872;55.432;37.248;2023-05-10T16:40:43;10.20;;;4.22;;
70426;SDS011;57872;55.432;37.248;2023-05-10T16:50:47;10.88;;;4.63;;
70426;SDS011;57872;55.432;37.248;2023-05-10T16:55:48;9.10;;;4.25;;
70426;SDS011;57872;55.432;37.248;2023-05-10T17:00:48;15.00;;;4.70;;
70426;SDS011;57872;55.432;37.248;2023-05-10T17:05:55;16.77;;;4.78;;
70426;SDS011;57872;55.432;37.248;2023-05-10T17:11:12;14.40;;;4.88;;
70426;SDS011;57872;55.432;37.248;2023-05-10T17:16:13;11.63;;;4.72;;
70426;SDS011;57872;55.432;37.248;2023-05-10T17:21:14;18.05;;;4.50;;
70426;SDS011;57872;55.432;37.248;2023-05-10T17:26:15;15.02;;;4.32;;
70426;SDS011;57872;55.432;37.248;2023-05-10T17:31:17;14.07;;;4.82;;
70426;SDS011;57872;55.432;37.248;2023-05-10T17:36:18;13.52;;;4.55;;
70426;SDS011;57872;55.432;37.248;2023-05-10T17:41:19;13.32;;;4.18;;
70426;SDS011;57872;55.432;37.248;2023-05-10T17:46:20;11.18;;;4.57;;
70426;SDS011;57872;55.432;37.248;2023-05-10T17:51:21;11.80;;;5.80;;
70426;SDS011;57872;55.432;37.248;2023-05-10T17:56:22;11.30;;;5.60;;
70426;SDS011;57872;55.432;37.248;2023-05-10T18:01:24;25.58;;;6.70;;
70426;SDS011;57872;55.432;37.248;2023-05-10T18:06:43;17.30;;;6.35;;
70426;SDS011;57872;55.432;37.248;2023-05-10T18:11:52;19.80;;;7.82;;
70426;SDS011;57872;55.432;37.248;2023-05-10T18:17:08;19.90;;;7.68;;
70426;SDS011;57872;55.432;37.248;2023-05-10T18:22:08;16.40;;;7.38;;
70426;SDS011;57872;55.432;37.248;2023-05-10T18:27:12;14.85;;;6.43;;
70426;SDS011;57872;55.432;37.248;2023-05-10T18:32:18;13.45;;;5.90;;
70426;SDS011;57872;55.432;37.248;2023-05-10T18:37:24;14.75;;;6.50;;
70426;SDS011;57872;55.432;37.248;2023-05-10T18:42:49;14.45;;;5.75;;
70426;SDS011;57872;55.432;37.248;2023-05-10T18:47:53;14.40;;;5.78;;
70426;SDS011;57872;55.432;37.248;2023-05-10T18:52:54;12.77;;;5.57;;
70426;SDS011;57872;55.432;37.248;2023-05-10T18:57:55;18.05;;;6.35;;
70426;SDS011;57872;55.432;37.248;2023-05-10T19:02:56;14.18;;;5.30;;
70426;SDS011;57872;55.432;37.248;2023-05-10T19:07:57;17.58;;;6.13;;
70426;SDS011;57872;55.432;37.248;2023-05-10T19:12:58;15.57;;;5.90;;
70426;SDS011;57872;55.432;37.248;2023-05-10T19:18:04;15.13;;;6.20;;
70426;SDS011;57872;55.432;37.248;2023-05-10T19:23:05;11.48;;;5.47;;
70426;SDS011;57872;55.432;37.248;2023-05-10T19:28:05;11.63;;;5.47;;
70426;SDS011;57872;55.432;37.248;2023-05-10T19:33:07;15.15;;;6.35;;
70426;SDS011;57872;55.432;37.248;2023-05-10T19:38:09;11.95;;;6.13;;
70426;SDS011;57872;55.432;37.248;2023-05-10T19:43:09;16.00;;;6.07;;
70426;SDS011;57872;55.432;37.248;2023-05-10T19:48:10;16.58;;;6.50;;
70426;SDS011;57872;55.432;37.248;2023-05-10T19:53:14;12.73;;;5.82;;
70426;SDS011;57872;55.432;37.248;2023-05-10T19:58:27;10.50;;;5.80;;
70426;SDS011;57872;55.432;37.248;2023-05-10T20:03:28;12.57;;;6.90;;
70426;SDS011;57872;55.432;37.248;2023-05-10T20:08:29;13.38;;;6.70;;
70426;SDS011;57872;55.432;37.248;2023-05-10T20:13:30;13.82;;;5.75;;
70426;SDS011;57872;55.432;37.248;2023-05-10T20:18:31;10.15;;;5.28;;
70426;SDS011;57872;55.432;37.248;2023-05-10T20:23:34;13.85;;;5.35;;
70426;SDS011;57872;55.432;37.248;2023-05-10T20:29:05;13.45;;;5.95;;
70426;SDS011;57872;55.432;37.248;2023-05-10T20:34:06;15.50;;;7.00;;
70426;SDS011;57872;55.432;37.248;2023-05-10T20:39:07;13.48;;;6.93;;
70426;SDS011;57872;55.432;37.248;2023-05-10T20:44:08;13.25;;;5.88;;
70426;SDS011;57872;55.432;37.248;2023-05-10T20:49:09;12.60;;;6.22;;
70426;SDS011;57872;55.432;37.248;2023-05-10T20:54:10;12.55;;;5.80;;
70426;SDS011;57872;55.432;37.248;2023-05-10T20:59:10;11.30;;;5.65;;
70426;SDS011;57872;55.432;37.248;2023-05-10T21:04:14;11.75;;;6.05;;
70426;SDS011;57872;55.432;37.248;2023-05-10T21:09:14;13.30;;;5.32;;
70426;SDS011;57872;55.432;37.248;2023-05-10T21:14:16;13.40;;;5.93;;
70426;SDS011;57872;55.432;37.248;2023-05-10T21:19:19;10.18;;;5.22;;
70426;SDS011;57872;55.432;37.248;2023-05-10T21:24:25;15.32;;;5.95;;
70426;SDS011;57872;55.432;37.248;2023-05-10T21:29:30;13.25;;;5.65;;
70426;SDS011;57872;55.432;37.248;2023-05-10T21:34:35;14.05;;;7.10;;
70426;SDS011;57872;55.432;37.248;2023-05-10T21:39:43;13.45;;;6.82;;
70426;SDS011;57872;55.432;37.248;2023-05-10T21:44:44;15.88;;;6.60;;
70426;SDS011;57872;55.432;37.248;2023-05-10T21:49:47;14.32;;;7.15;;
70426;SDS011;57872;55.432;37.248;2023-05-10T21:54:51;13.60;;;6.47;;
70426;SDS011;57872;55.432;37.248;2023-05-10T22:00:00;17.02;;;7.63;;
70426;SDS011;57872;55.432;37.248;2023-05-10T22:05:04;12.30;;;7.07;;
70426;SDS011;57872;55.432;37.248;2023-05-10T22:10:06;15.95;;;6.35;;
70426;SDS011;57872;55.432;37.248;2023-05-10T22:15:11;14.50;;;6.10;;
70426;SDS011;57872;55.432;37.248;2023-05-10T22:20:33;15.77;;;6.15;;
70426;SDS011;57872;55.432;37.248;2023-05-10T22:25:42;14.55;;;6.20;;
70426;SDS011;57872;55.432;37.248;2023-05-10T22:30:43;14.63;;;6.35;;
70426;SDS011;57872;55.432;37.248;2023-05-10T22:35:47;12.05;;;4.93;;
70426;SDS011;57872;55.432;37.248;2023-05-10T22:40:57;14.35;;;5.60;;
70426;SDS011;57872;55.432;37.248;2023-05-10T22:46:01;12.55;;;5.82;;
70426;SDS011;57872;55.432;37.248;2023-05-10T22:51:02;11.70;;;5.30;;
70426;SDS011;57872;55.432;37.248;2023-05-10T22:56:03;10.52;;;4.88;;
70426;SDS011;57872;55.432;37.248;2023-05-10T23:01:03;26.13;;;13.65;;
70426;SDS011;57872;55.432;37.248;2023-05-10T23:06:25;12.35;;;5.35;;
70426;SDS011;57872;55.432;37.248;2023-05-10T23:11:29;12.65;;;5.05;;
70426;SDS011;57872;55.432;37.248;2023-05-10T23:16:30;9.90;;;4.57;;
70426;SDS011;57872;55.432;37.248;2023-05-10T23:21:31;14.60;;;5.53;;
70426;SDS011;57872;55.432;37.248;2023-05-10T23:26:31;13.63;;;6.32;;
70426;SDS011;57872;55.432;37.248;2023-05-10T23:31:32;12.10;;;5.43;;
70426;SDS011;57872;55.432;37.248;2023-05-10T23:36:33;14.40;;;6.10;;
70426;SDS011;57872;55.432;37.248;2023-05-10T23:41:33;15.57;;;5.88;;
70426;SDS011;57872;55.432;37.248;2023-05-10T23:46:34;11.95;;;6.10;;
70426;SDS011;57872;55.432;37.248;2023-05-10T23:51:35;13.05;;;6.00;;
70426;SDS011;57872;55.432;37.248;2023-05-10T23:56:35;11.98;;;5.93;;
